createdAt,value
2018-05-17T00:00:01.213Z,12.10
2018-05-17T00:02:27.865Z,12.93
2018-05-17T00:04:54.514Z,13.90
2018-05-17T00:07:21.205Z,11.87
2018-05-17T00:09:48.546Z,12.30
2018-05-17T00:12:15.195Z,11.33
2018-05-17T00:14:41.868Z,10.83
2018-05-17T00:17:08.547Z,11.50
2018-05-17T00:19:35.524Z,11.93
2018-05-17T00:22:02.223Z,11.27
2018-05-17T00:24:28.882Z,11.27
2018-05-17T00:26:55.529Z,11.40
2018-05-17T00:29:22.228Z,11.63
2018-05-17T00:31:48.872Z,12.30
2018-05-17T00:34:15.528Z,11.53
2018-05-17T00:36:42.210Z,12.27
2018-05-17T00:39:08.901Z,13.17
2018-05-17T00:41:35.556Z,13.10
2018-05-17T00:44:02.588Z,13.60
2018-05-17T00:46:29.272Z,14.53
2018-05-17T00:48:55.929Z,15.80
2018-05-17T00:51:23.320Z,16.20
2018-05-17T00:53:50.001Z,17.97
2018-05-17T00:56:17.020Z,18.50
2018-05-17T00:58:43.748Z,18.53
2018-05-17T01:01:10.433Z,18.27
2018-05-17T01:03:37.169Z,17.53
2018-05-17T01:06:03.818Z,18.70
2018-05-17T01:08:30.489Z,20.87
2018-05-17T01:10:57.186Z,22.27
2018-05-17T01:13:23.821Z,18.80
2018-05-17T01:15:50.498Z,20.07
2018-05-17T01:18:17.222Z,21.43
2018-05-17T01:20:43.845Z,20.60
2018-05-17T01:23:10.558Z,19.40
2018-05-17T01:25:37.222Z,19.53
2018-05-17T01:28:03.847Z,22.30
2018-05-17T01:30:30.516Z,23.23
2018-05-17T01:32:57.156Z,22.30
2018-05-17T01:35:23.787Z,20.47
2018-05-17T01:37:56.158Z,19.67
2018-05-17T01:40:22.800Z,19.83
2018-05-17T01:42:49.472Z,18.07
2018-05-17T01:45:16.128Z,18.20
2018-05-17T01:47:42.765Z,18.40
2018-05-17T01:50:09.410Z,18.33
2018-05-17T01:52:36.054Z,17.77
2018-05-17T01:55:02.699Z,16.27
2018-05-17T01:57:29.352Z,15.63
2018-05-17T01:59:55.999Z,14.40
2018-05-17T02:02:22.683Z,15.03
2018-05-17T02:04:49.306Z,13.73
2018-05-17T02:07:15.931Z,13.47
2018-05-17T02:09:42.703Z,12.97
2018-05-17T02:12:10.090Z,12.17
2018-05-17T02:14:36.707Z,12.57
2018-05-17T02:17:03.476Z,12.77
2018-05-17T02:19:30.132Z,12.87
2018-05-17T02:21:56.828Z,11.50
2018-05-17T02:24:23.502Z,12.07
2018-05-17T02:26:50.133Z,12.37
2018-05-17T02:29:16.790Z,12.00
2018-05-17T02:31:43.457Z,13.33
2018-05-17T02:34:10.101Z,11.90
2018-05-17T02:36:36.771Z,12.67
2018-05-17T02:39:03.438Z,11.90
2018-05-17T02:41:30.136Z,12.00
2018-05-17T02:43:56.769Z,10.60
2018-05-17T02:46:23.425Z,12.37
2018-05-17T02:48:50.072Z,11.57
2018-05-17T02:51:16.700Z,12.20
2018-05-17T02:53:43.366Z,10.97
2018-05-17T02:56:10.006Z,11.30
2018-05-17T02:58:36.650Z,11.30
2018-05-17T03:01:03.347Z,12.07
2018-05-17T03:03:29.988Z,12.07
2018-05-17T03:05:56.649Z,12.33
2018-05-17T03:08:23.318Z,11.97
2018-05-17T03:10:49.990Z,12.20
2018-05-17T03:13:16.665Z,12.10
2018-05-17T03:15:43.296Z,13.10
2018-05-17T03:18:09.978Z,11.60
2018-05-17T03:20:36.717Z,16.10
2018-05-17T03:23:03.459Z,15.77
2018-05-17T03:25:30.104Z,18.57
2018-05-17T03:27:56.848Z,18.20
2018-05-17T03:30:23.481Z,20.40
2018-05-17T03:32:50.147Z,21.03
2018-05-17T03:35:16.777Z,20.57
2018-05-17T03:37:43.457Z,22.30
2018-05-17T03:40:10.172Z,19.90
2018-05-17T03:42:36.825Z,18.60
2018-05-17T03:45:03.476Z,22.03
2018-05-17T03:47:30.116Z,21.57
2018-05-17T03:49:56.782Z,19.37
2018-05-17T03:52:23.451Z,20.40
2018-05-17T03:54:50.113Z,20.20
2018-05-17T03:57:16.757Z,19.60
2018-05-17T03:59:43.425Z,19.73
2018-05-17T04:02:15.931Z,22.13
2018-05-17T04:04:48.260Z,22.27
2018-05-17T04:07:14.956Z,19.43
2018-05-17T04:09:41.639Z,19.33
2018-05-17T04:12:08.360Z,20.20
2018-05-17T04:14:35.067Z,19.77
2018-05-17T04:17:01.754Z,18.33
2018-05-17T04:19:28.399Z,21.13
2018-05-17T04:21:55.068Z,20.70
2018-05-17T04:24:21.711Z,23.50
2018-05-17T04:26:48.372Z,21.80
2018-05-17T04:29:15.352Z,22.77
2018-05-17T04:31:41.983Z,23.80
2018-05-17T04:34:08.625Z,21.43
2018-05-17T04:36:35.344Z,20.80
2018-05-17T04:39:01.977Z,19.10
2018-05-17T04:41:28.622Z,21.50
2018-05-17T04:43:55.277Z,20.00
2018-05-17T04:46:21.965Z,18.57
2018-05-17T04:48:48.638Z,15.93
2018-05-17T04:51:15.286Z,16.13
2018-05-17T04:53:41.934Z,16.57
2018-05-17T04:56:08.605Z,17.20
2018-05-17T04:58:35.280Z,16.90
2018-05-17T05:01:01.919Z,16.37
2018-05-17T05:03:28.935Z,15.17
2018-05-17T05:05:55.651Z,15.20
2018-05-17T05:08:22.295Z,16.70
2018-05-17T05:10:48.960Z,17.67
2018-05-17T05:13:15.666Z,16.17
2018-05-17T05:15:42.382Z,18.23
2018-05-17T05:18:09.085Z,18.67
2018-05-17T05:20:35.733Z,19.60
2018-05-17T05:23:02.380Z,18.97
2018-05-17T05:25:29.216Z,16.90
2018-05-17T05:27:55.870Z,20.27
2018-05-17T05:30:22.551Z,19.50
2018-05-17T05:32:49.212Z,16.87
2018-05-17T05:35:15.836Z,18.20
2018-05-17T05:37:42.477Z,19.43
2018-05-17T05:40:09.160Z,19.00
2018-05-17T05:42:35.836Z,18.27
2018-05-17T05:45:02.551Z,20.33
2018-05-17T05:47:29.187Z,20.17
2018-05-17T05:49:55.877Z,20.60
2018-05-17T05:52:22.875Z,19.17
2018-05-17T05:54:50.960Z,19.67
2018-05-17T05:57:17.636Z,21.90
2018-05-17T05:59:45.260Z,22.67
2018-05-17T06:02:11.869Z,21.67
2018-05-17T06:04:38.512Z,23.40
2018-05-17T06:07:05.172Z,25.80
2018-05-17T06:09:31.889Z,28.53
2018-05-17T06:11:58.519Z,27.87
2018-05-17T06:14:25.174Z,27.57
2018-05-17T06:16:51.893Z,28.90
2018-05-17T06:19:19.471Z,29.10
2018-05-17T06:21:46.145Z,28.00
2018-05-17T06:24:12.842Z,33.60
2018-05-17T06:26:39.527Z,32.73
2018-05-17T06:29:06.206Z,30.67
2018-05-17T06:31:32.868Z,29.33
2018-05-17T06:33:59.529Z,30.97
2018-05-17T06:36:26.529Z,30.97
2018-05-17T06:38:53.217Z,32.30
2018-05-17T06:41:20.728Z,34.27
2018-05-17T06:43:47.478Z,36.57
2018-05-17T06:46:14.209Z,34.17
2018-05-17T06:48:40.891Z,32.00
2018-05-17T06:51:07.604Z,35.93
2018-05-17T06:53:34.260Z,34.40
2018-05-17T06:56:00.939Z,29.20
2018-05-17T06:58:27.592Z,29.23
2018-05-17T07:00:54.264Z,28.03
2018-05-17T07:03:20.929Z,29.10
2018-05-17T07:05:47.711Z,29.00
2018-05-17T07:08:14.397Z,26.73
2018-05-17T07:10:41.112Z,28.80
2018-05-17T07:13:07.842Z,27.07
2018-05-17T07:15:34.501Z,25.80
2018-05-17T07:18:01.393Z,25.37
2018-05-17T07:20:27.906Z,26.93
2018-05-17T07:22:54.592Z,23.93
2018-05-17T07:25:21.299Z,24.07
2018-05-17T07:27:47.959Z,22.17
2018-05-17T07:30:14.622Z,22.10
2018-05-17T07:32:41.290Z,20.23
2018-05-17T07:35:07.953Z,22.80
2018-05-17T07:37:34.623Z,20.50
2018-05-17T07:40:01.392Z,22.50
2018-05-17T07:42:28.085Z,21.77
2018-05-17T07:44:54.738Z,19.70
2018-05-17T07:47:21.415Z,19.43
2018-05-17T07:49:48.094Z,18.60
2018-05-17T07:52:14.806Z,17.47
2018-05-17T07:54:41.416Z,16.70
2018-05-17T07:57:08.137Z,18.13
2018-05-17T07:59:34.809Z,16.47
2018-05-17T08:02:01.462Z,16.93
2018-05-17T08:04:28.186Z,17.47
2018-05-17T08:06:54.887Z,15.87
2018-05-17T08:09:21.639Z,18.30
2018-05-17T08:11:48.252Z,17.40
2018-05-17T08:14:14.922Z,17.67
2018-05-17T08:16:41.577Z,18.77
2018-05-17T08:19:08.268Z,18.73
2018-05-17T08:21:34.957Z,18.00
2018-05-17T08:24:01.753Z,20.03
2018-05-17T08:26:29.863Z,17.27
2018-05-17T08:28:56.558Z,17.67
2018-05-17T08:31:23.228Z,16.97
2018-05-17T08:33:49.895Z,17.60
2018-05-17T08:36:16.595Z,16.37
2018-05-17T08:38:43.285Z,18.80
2018-05-17T08:41:09.988Z,18.27
2018-05-17T08:43:36.805Z,18.03
2018-05-17T08:46:03.441Z,18.10
2018-05-17T08:48:30.941Z,19.07
2018-05-17T08:50:57.609Z,19.83
2018-05-17T08:59:33.415Z,17.77
2018-05-17T09:02:00.101Z,18.83
2018-05-17T09:04:26.740Z,17.63
2018-05-17T09:06:53.519Z,18.57
2018-05-17T09:09:20.202Z,17.70
2018-05-17T09:11:47.369Z,20.10
2018-05-17T09:14:14.055Z,19.37
2018-05-17T09:16:40.751Z,20.30
2018-05-17T09:19:12.924Z,19.03
2018-05-17T09:21:40.247Z,18.73
2018-05-17T09:24:09.663Z,17.67
2018-05-17T09:26:36.365Z,18.93
2018-05-17T09:29:03.056Z,19.47
2018-05-17T09:31:29.740Z,19.53
2018-05-17T09:33:57.282Z,19.87
2018-05-17T09:36:23.944Z,20.43
2018-05-17T09:38:50.676Z,18.97
2018-05-17T09:41:17.489Z,18.90
2018-05-17T09:43:44.088Z,17.47
2018-05-17T09:46:10.736Z,19.67
2018-05-17T09:48:37.482Z,19.27
2018-05-17T09:51:04.212Z,19.00
2018-05-17T09:53:30.910Z,19.80
2018-05-17T09:55:57.595Z,19.10
2018-05-17T09:58:24.259Z,19.13
2018-05-17T10:00:50.994Z,21.30
2018-05-17T10:03:18.013Z,19.80
2018-05-17T10:05:44.694Z,20.60
2018-05-17T10:08:11.379Z,20.50
2018-05-17T10:10:38.280Z,19.57
2018-05-17T10:13:04.978Z,20.77
2018-05-17T10:15:32.889Z,20.93
2018-05-17T10:17:59.547Z,19.40
2018-05-17T10:20:26.258Z,20.30
2018-05-17T10:22:52.933Z,18.90
2018-05-17T10:25:19.608Z,19.83
2018-05-17T10:27:46.332Z,18.90
2018-05-17T10:30:13.065Z,19.17
2018-05-17T10:32:39.718Z,18.10
2018-05-17T10:35:06.391Z,19.40
2018-05-17T10:37:33.050Z,21.37
2018-05-17T10:39:59.752Z,19.50
2018-05-17T10:42:26.450Z,18.20
2018-05-17T10:44:53.149Z,19.40
2018-05-17T10:47:19.907Z,18.33
2018-05-17T10:49:46.599Z,17.10
2018-05-17T10:52:13.309Z,18.30
2018-05-17T10:54:40.031Z,17.20
2018-05-17T10:57:06.792Z,15.70
2018-05-17T10:59:33.410Z,15.73
2018-05-17T11:02:00.089Z,17.23
2018-05-17T11:04:29.688Z,17.00
2018-05-17T11:06:56.366Z,17.43
2018-05-17T11:09:23.063Z,18.07
2018-05-17T11:11:49.731Z,17.03
2018-05-17T11:14:16.408Z,16.93
2018-05-17T11:16:43.801Z,18.37
2018-05-17T11:19:10.478Z,18.80
2018-05-17T11:21:37.175Z,18.27
2018-05-17T11:24:03.859Z,21.07
2018-05-17T11:26:30.557Z,21.00
2018-05-17T11:28:57.204Z,20.40
2018-05-17T11:31:23.902Z,20.97
2018-05-17T11:33:50.656Z,19.33
2018-05-17T11:36:17.317Z,18.50
2018-05-17T11:38:44.019Z,21.57
2018-05-17T11:41:10.659Z,19.47
2018-05-17T11:43:37.366Z,17.93
2018-05-17T11:46:04.074Z,19.60
2018-05-17T11:48:30.903Z,19.83
2018-05-17T11:50:57.484Z,21.37
2018-05-17T11:53:24.169Z,19.93
2018-05-17T11:55:50.815Z,19.37
2018-05-17T11:58:17.468Z,18.20
2018-05-17T12:00:44.127Z,20.27
2018-05-17T12:03:11.091Z,19.87
2018-05-17T12:05:37.738Z,20.20
2018-05-17T12:08:04.372Z,21.30
2018-05-17T12:10:31.083Z,19.67
2018-05-17T12:12:57.801Z,22.10
2018-05-17T12:15:24.482Z,21.30
2018-05-17T12:17:51.192Z,21.90
2018-05-17T12:20:17.847Z,20.20
2018-05-17T12:22:44.614Z,21.67
2018-05-17T12:25:11.321Z,17.57
2018-05-17T12:27:37.982Z,17.53
2018-05-17T12:30:04.681Z,16.70
2018-05-17T12:32:31.337Z,17.20
2018-05-17T12:34:58.008Z,19.47
2018-05-17T12:37:24.716Z,19.03
2018-05-17T12:39:51.403Z,17.00
2018-05-17T12:42:18.045Z,15.93
2018-05-17T12:44:44.740Z,16.20
2018-05-17T12:47:11.413Z,17.73
2018-05-17T12:49:38.100Z,14.97
2018-05-17T12:52:05.469Z,15.90
2018-05-17T12:54:32.532Z,16.10
2018-05-17T12:57:00.418Z,17.27
2018-05-17T12:59:27.075Z,15.60
2018-05-17T13:01:53.857Z,15.40
2018-05-17T13:04:20.580Z,15.67
2018-05-17T13:06:47.309Z,15.70
2018-05-17T13:09:13.982Z,15.20
2018-05-17T13:11:40.690Z,15.90
2018-05-17T13:14:07.359Z,14.57
2018-05-17T13:16:34.454Z,14.73
2018-05-17T13:19:01.163Z,14.10
2018-05-17T13:21:27.837Z,13.47
2018-05-17T13:23:54.549Z,14.27
2018-05-17T13:26:21.267Z,14.90
2018-05-17T13:28:48.003Z,15.47
2018-05-17T13:31:14.790Z,14.60
2018-05-17T13:33:41.493Z,15.17
2018-05-17T13:36:08.191Z,15.10
2018-05-17T13:38:35.016Z,15.37
2018-05-17T13:41:01.795Z,15.03
2018-05-17T13:43:28.521Z,12.60
2018-05-17T13:45:55.344Z,15.67
2018-05-17T13:48:21.993Z,15.37
2018-05-17T13:50:48.676Z,13.53
2018-05-17T13:53:15.376Z,11.20
2018-05-17T13:55:42.037Z,12.00
2018-05-17T13:58:08.739Z,11.67
2018-05-17T14:00:35.450Z,11.37
2018-05-17T14:03:02.135Z,12.17
2018-05-17T14:05:28.790Z,13.80
2018-05-17T14:07:55.453Z,12.00
2018-05-17T14:10:22.093Z,12.63
2018-05-17T14:12:48.903Z,14.00
2018-05-17T14:15:15.613Z,12.37
2018-05-17T14:17:42.560Z,12.70
2018-05-17T14:20:09.333Z,13.10
2018-05-17T14:22:36.010Z,12.00
2018-05-17T14:25:02.680Z,11.60
2018-05-17T14:27:29.428Z,12.97
2018-05-17T14:29:56.116Z,11.40
2018-05-17T14:32:22.776Z,11.40
2018-05-17T14:34:49.516Z,12.10
2018-05-17T14:37:16.253Z,10.90
2018-05-17T14:39:42.962Z,12.80
2018-05-17T14:42:09.652Z,11.20
2018-05-17T14:44:36.383Z,11.97
2018-05-17T14:47:03.074Z,11.30
2018-05-17T14:49:29.791Z,12.20
2018-05-17T14:51:56.482Z,11.90
2018-05-17T14:54:23.163Z,10.70
2018-05-17T14:56:49.878Z,12.23
2018-05-17T14:59:16.553Z,12.63
2018-05-17T15:01:43.915Z,12.33
2018-05-17T15:04:10.648Z,12.07
2018-05-17T15:06:37.432Z,12.30
2018-05-17T15:09:04.960Z,11.30
2018-05-17T15:11:31.699Z,10.50
2018-05-17T15:13:58.592Z,11.43
2018-05-17T15:16:25.358Z,11.37
2018-05-17T15:18:52.049Z,12.50
2018-05-17T15:21:18.838Z,12.17
2018-05-17T15:23:45.783Z,12.67
2018-05-17T15:26:12.788Z,12.40
2018-05-17T15:28:41.842Z,12.33
2018-05-17T15:31:10.382Z,11.70
2018-05-17T15:33:37.063Z,12.50
2018-05-17T15:36:03.781Z,14.37
2018-05-17T15:38:30.497Z,11.47
2018-05-17T15:40:57.212Z,13.03
2018-05-17T15:43:23.885Z,12.57
2018-05-17T15:45:51.194Z,11.60
2018-05-17T15:48:17.939Z,12.60
2018-05-17T15:50:44.610Z,11.60
2018-05-17T15:53:11.430Z,11.57
2018-05-17T15:55:38.105Z,10.90
2018-05-17T15:58:04.900Z,12.40
2018-05-17T16:00:31.732Z,12.63
2018-05-17T16:02:58.394Z,12.00
2018-05-17T16:05:26.285Z,12.50
2018-05-17T16:07:53.135Z,12.80
2018-05-17T16:10:19.896Z,11.90
2018-05-17T16:12:46.611Z,11.10
2018-05-17T16:15:13.425Z,12.00
2018-05-17T16:17:40.037Z,13.50
2018-05-17T16:20:06.718Z,12.57
2018-05-17T16:22:34.103Z,12.67
2018-05-17T16:25:00.892Z,11.60
2018-05-17T16:27:27.693Z,12.43
2018-05-17T16:29:54.407Z,12.40
2018-05-17T16:32:21.178Z,12.10
2018-05-17T16:34:47.891Z,12.17
2018-05-17T16:37:14.722Z,12.80
2018-05-17T16:39:41.471Z,13.20
2018-05-17T16:42:08.371Z,12.57
2018-05-17T16:44:35.138Z,13.10
2018-05-17T16:47:01.850Z,12.30
2018-05-17T16:49:28.561Z,13.40
2018-05-17T16:51:56.471Z,12.43
2018-05-17T16:54:23.273Z,12.70
2018-05-17T16:56:50.071Z,11.67
2018-05-17T16:59:16.737Z,13.43
2018-05-17T17:01:43.461Z,12.67
2018-05-17T17:04:10.164Z,12.40
2018-05-17T17:06:36.827Z,14.27
2018-05-17T17:09:03.517Z,13.40
2018-05-17T17:11:30.246Z,12.17
2018-05-17T17:13:56.907Z,13.60
2018-05-17T17:16:23.620Z,18.37
2018-05-17T17:18:50.340Z,17.20
2018-05-17T17:21:17.028Z,19.57
2018-05-17T17:23:43.716Z,17.40
2018-05-17T17:26:10.470Z,16.90
2018-05-17T17:28:37.175Z,16.80
2018-05-17T17:31:03.843Z,15.40
2018-05-17T17:33:30.530Z,16.57
2018-05-17T17:35:57.252Z,16.70
2018-05-17T17:38:24.268Z,15.10
2018-05-17T17:40:51.090Z,15.97
2018-05-17T17:43:17.773Z,15.03
2018-05-17T17:45:44.521Z,15.90
2018-05-17T17:48:11.295Z,15.90
2018-05-17T17:50:37.958Z,14.37
2018-05-17T17:53:04.660Z,15.17
2018-05-17T17:55:31.352Z,16.73
2018-05-17T17:57:58.096Z,16.10
2018-05-17T18:00:25.037Z,15.77
2018-05-17T18:02:51.693Z,15.70
2018-05-17T18:05:18.462Z,15.60
2018-05-17T18:07:45.079Z,16.47
2018-05-17T18:10:11.936Z,15.73
2018-05-17T18:12:38.634Z,15.37
2018-05-17T18:15:05.310Z,15.30
2018-05-17T18:17:32.021Z,17.00
2018-05-17T18:19:58.723Z,16.00
2018-05-17T18:22:25.443Z,15.77
2018-05-17T18:24:52.138Z,15.90
2018-05-17T18:27:18.922Z,15.80
2018-05-17T18:29:45.643Z,16.40
2018-05-17T18:32:12.307Z,16.20
2018-05-17T18:34:39.011Z,15.17
2018-05-17T18:37:05.678Z,16.23
2018-05-17T18:39:32.320Z,15.27
2018-05-17T18:41:58.998Z,15.07
2018-05-17T18:44:25.693Z,15.67
2018-05-17T18:46:53.682Z,16.20
2018-05-17T18:49:21.394Z,15.20
2018-05-17T18:51:48.056Z,15.07
2018-05-17T18:54:14.828Z,15.03
2018-05-17T18:56:41.529Z,13.83
2018-05-17T18:59:08.237Z,16.00
2018-05-17T19:01:35.029Z,14.80
2018-05-17T19:04:01.728Z,14.50
2018-05-17T19:06:28.527Z,15.00
2018-05-17T19:08:55.218Z,14.90
2018-05-17T19:11:22.152Z,14.93
2018-05-17T19:13:48.869Z,14.50
2018-05-17T19:16:15.530Z,14.37
2018-05-17T19:18:42.263Z,14.63
2018-05-17T19:21:09.029Z,16.60
2018-05-17T19:23:35.789Z,14.80
2018-05-17T19:26:02.501Z,14.33
2018-05-17T19:28:29.285Z,15.43
2018-05-17T19:30:55.996Z,15.73
2018-05-17T19:33:23.672Z,14.50
2018-05-17T19:35:50.377Z,13.90
2018-05-17T19:38:17.430Z,14.60
2018-05-17T19:40:44.150Z,13.87
2018-05-17T19:43:10.844Z,14.93
2018-05-17T19:45:37.759Z,15.80
2018-05-17T19:48:04.404Z,14.17
2018-05-17T19:50:31.084Z,14.57
2018-05-17T19:52:58.165Z,14.23
2018-05-17T19:55:24.854Z,15.30
2018-05-17T19:57:51.553Z,17.83
2018-05-17T20:00:18.282Z,17.20
2018-05-17T20:02:44.962Z,16.60
2018-05-17T20:05:11.665Z,17.20
2018-05-17T20:07:38.537Z,16.10
2018-05-17T20:10:05.241Z,17.83
2018-05-17T20:12:32.231Z,16.07
2018-05-17T20:14:58.874Z,18.47
2018-05-17T20:17:25.603Z,17.70
2018-05-17T20:19:52.337Z,17.87
2018-05-17T20:22:19.000Z,17.73
2018-05-17T20:24:45.727Z,18.90
2018-05-17T20:27:12.454Z,18.80
2018-05-17T20:29:39.263Z,18.37
2018-05-17T20:32:05.969Z,19.30
2018-05-17T20:34:32.619Z,18.40
2018-05-17T20:36:59.293Z,18.33
2018-05-17T20:39:25.949Z,19.17
2018-05-17T20:41:52.632Z,18.17
2018-05-17T20:44:19.593Z,17.97
2018-05-17T20:46:46.250Z,19.60
2018-05-17T20:49:12.892Z,19.70
2018-05-17T20:51:39.549Z,17.90
2018-05-17T20:54:06.291Z,19.30
2018-05-17T20:56:32.956Z,18.57
2018-05-17T20:58:59.727Z,17.50
2018-05-17T21:01:26.386Z,17.30
2018-05-17T21:03:53.053Z,18.77
2018-05-17T21:06:19.733Z,18.53
2018-05-17T21:08:46.381Z,18.80
2018-05-17T21:11:13.067Z,19.00
2018-05-17T21:13:39.831Z,20.03
2018-05-17T21:16:06.495Z,18.07
2018-05-17T21:18:33.282Z,19.50
2018-05-17T21:20:59.976Z,19.90
2018-05-17T21:23:26.612Z,20.17
2018-05-17T21:25:53.954Z,20.20
2018-05-17T21:28:21.426Z,19.03
2018-05-17T21:30:52.873Z,18.63
2018-05-17T21:33:19.689Z,16.97
2018-05-17T21:35:47.262Z,18.30
2018-05-17T21:38:14.015Z,18.33
2018-05-17T21:40:40.709Z,18.77
2018-05-17T21:43:07.429Z,17.77
2018-05-17T21:45:34.359Z,18.37
2018-05-17T21:48:01.291Z,19.37
2018-05-17T21:50:28.005Z,18.53
2018-05-17T21:52:54.661Z,19.10
2018-05-17T21:55:21.407Z,20.13
2018-05-17T21:57:48.064Z,18.37
2018-05-17T22:00:15.697Z,18.90
2018-05-17T22:02:42.388Z,18.57
2018-05-17T22:05:09.845Z,18.10
2018-05-17T22:07:36.812Z,19.70
2018-05-17T22:10:03.474Z,17.90
2018-05-17T22:12:30.136Z,18.37
2018-05-17T22:14:56.801Z,18.53
2018-05-17T22:17:23.439Z,18.40
2018-05-17T22:19:50.095Z,20.43
2018-05-17T22:22:16.732Z,18.30
2018-05-17T22:24:43.394Z,20.60
2018-05-17T22:27:10.099Z,20.67
2018-05-17T22:29:36.848Z,18.27
2018-05-17T22:32:03.666Z,19.40
2018-05-17T22:34:30.354Z,19.70
2018-05-17T22:36:57.754Z,20.13
2018-05-17T22:39:24.403Z,20.07
2018-05-17T22:41:51.066Z,20.10
2018-05-17T22:44:17.868Z,18.90
2018-05-17T22:46:44.657Z,18.13
2018-05-17T22:49:11.278Z,18.70
2018-05-17T22:51:37.939Z,19.67
2018-05-17T22:54:04.624Z,19.00
2018-05-17T22:56:37.167Z,18.77
2018-05-17T22:59:03.854Z,19.90
2018-05-17T23:01:30.538Z,18.20
2018-05-17T23:03:57.177Z,18.77
2018-05-17T23:06:23.856Z,17.47
2018-05-17T23:08:50.528Z,17.80
2018-05-17T23:11:17.228Z,17.83
2018-05-17T23:13:43.905Z,17.60
2018-05-17T23:16:10.572Z,17.67
2018-05-17T23:18:37.993Z,18.10
2018-05-17T23:21:04.653Z,17.17
2018-05-17T23:23:31.332Z,17.70
2018-05-17T23:25:57.976Z,17.30
2018-05-17T23:28:24.619Z,16.03
2018-05-17T23:30:51.296Z,16.30
2018-05-17T23:33:17.971Z,17.60
2018-05-17T23:35:44.702Z,17.13
2018-05-17T23:38:11.352Z,15.93
2018-05-17T23:40:55.719Z,16.40
2018-05-17T23:43:22.376Z,16.10
2018-05-17T23:45:49.040Z,17.40
2018-05-17T23:48:15.653Z,14.90
2018-05-17T23:50:42.484Z,18.10
2018-05-17T23:53:09.139Z,16.30
2018-05-17T23:55:35.908Z,16.10
2018-05-17T23:58:02.574Z,15.40
